Clinton, IA

5:12 AM CDT on October 25, 2014 (GMT -0500)
MesoWest US-30 @ Clinton/Mississippi Rive IL US ILDOT | Change Station
CLOSE
Current Station
Personal Weather Station
Location: Clinton, IA
Elevation: 577 ft
Nearby Weather Stations
Active Advisory: Dense Fog Advisory

Elev 577 ft 41.84 °N, 90.18 °W | Updated 46 minutes ago

Overcast
Overcast
59 °F
Feels Like 59 °F
N
1
Wind Variable Wind from NNE
Gusts 6.0 mph

Today
High -- | Low -- °F
--% Chance of Precip.
Yesterday
High -- | Low -- °F
Precip. -- in
7:24 AM 6:04 PM
New Moon, 2% visible
Pressure 29.96 in
Visibility 0.5 miles
Clouds Overcast 200 ft
Dew Point 58 °F
Humidity 99%
Rainfall -999.00 in
Snow Depth Not available.
UV 0 out of 12
Pollen 1.50 out of 12
Air Quality Not available.
Flu Activity Sporadic
METAR KCWI 250955Z 31006KT 1/2SM OVC002 13/12 A2996 RMK AO1

More Conditions Fewer Conditions

Pressure 29.96 in
Visibility 0.5 miles
Clouds Overcast 200 ft
Dew Point 58 °F
Humidity 99%
Rainfall -999.00 in
Snow Depth Not available.
UV 0 out of 12
Pollen 1.50 out of 12
Air Quality Not available.
Flu Activity Sporadic
METAR KCWI 250955Z 31006KT 1/2SM OVC002 13/12 A2996 RMK AO1

More Conditions Fewer Conditions

10-Day Weather Forecast

Almanac

Astronomy

Oct. 25, 2014 Rise Set
Actual Time 7:24 AM CDT 6:04 PM CDT
Civil Twilight 6:56 AM CDT 6:32 PM CDT
Nautical Twilight 6:23 AM CDT 7:05 PM CDT
Astronomical Twilight 5:51 AM CDT 7:37 PM CDT
Moon 9:04 AM CDT 7:26 PM CDT
Length of Visible Light 11h 36m
Length of Day
10h 39m
Tomorrow will be 2m 35s shorter.
New Moon, 2% of the Moon is Illuminated
Today
New Moon
Oct 30
First Quarter
Nov 6
Full
Nov 14
Last Quarter
Nov 22
New

Today's Extremes

State Highs State Lows

Community

WunderPhotos

Upload Photos

1,764,796 photos uploaded!

Nearby

Snow Depth

Station Depth Elevation
No new snow has been reported.

Earthquake Activity

City Distance Mag. Time & Date
No recent earthquake activity has been reported nearby.
Minimum magnitude displayed is 2.5.

Coastal Water Temperatures

Place Temperature
No Stations Reporting

Nearby Weather Stations